首页
METAR-TAF:

METAR-TAF

机场 :

印第安納波利斯, 印第安纳州, 美国

印第安纳波利斯国际机场

纬度: 39-43-30N, 经度: 086-16-55W, 海拔: 243米

当前天气观测

该预报发布于1小时和2分钟前的05:54 UTC
风速15节,风向西南
温度 2°C
湿度 55%
气压 1015 hPa
能見度: 16.1公里
多云层高于25000英尺

METAR: KIND 200554Z 22015KT 10SM BKN250 02/M06 A2996 RMK AO2 SLP152 4/002 T00221056 10028 20011 53001

时间: 01:56 (06:56 UTC)

预报

该预报发布于1小时和34分钟前的05:22 UTC
预报有效从20日的 06点(UTC)到 21日的 12点(UTC)
风速13节,风向南转西南
能見度: 10公里
多云层高于25000英尺
从 20日的 1100点(UTC)
风速10节,风向西南
能見度: 10公里
多云层高于25000英尺
从 20日的 2000点(UTC)
风速10节,风向南转西南
能見度: 10公里
多云层高于800英尺
从 21日的 0100点(UTC)
风速6节,风向南转西南
能見度: 6.4公里
多云层高于800英尺
轻雾
从 21日的 0500点(UTC)
风速5节,风向南转西南
能見度: 2.4公里
多云层高于300英尺
轻雾
从 21日的 0800点(UTC)
风速5节,风向
能見度: 2.4公里
阴天层高于300英尺

TAF: KIND 200522Z 2006/2112 21013KT P6SM BKN250 WS020/23040KT FM201100 22010KT P6SM BKN250 FM202000 21010KT P6SM BKN008 FM210100 20006KT 4SM BR BKN008 FM210500 20005KT 1 1/2SM BR BKN003 FM210800 19005KT 1/2SM FG OVC003

超过4000个机场的气象观测和天气预报(METAR&TAF报告)。

可查询的气象台以黄色和红色小点在地图上表示。

将鼠标移到小点上方,可查看气象台名称。

然后点击查看天气观测和预报。

如需切换地图:点击带黑十字的绿色按钮放大地图;点击带横线的绿色按钮缩小地图;或者点击绿色箭头查看邻近地区的地图。


METAR-TAF: